PWSweather.com
Personal Weather Stations
Station Observations
EDGELEY
Edgeley, Nd, Edgeley, ND 58433

Edgeley, NdEdgeley, ND 58433

Lat: 46.3599246, Lon: -98.7144392

Elevation: 1575

Station Type: Davis/Vantage Pro

www.edgeleyweather.com

High Low Average
Temperature 79.7°F26.5°C 53.1°F11.7°C 65.5°F18.6°C
Dew Point 58.9°F14.9°C 46.6°F8.1°C 52.2°F11.2°C
Winds 22.0 mph 35.4 kmh Calm Calm 7.0 mph N11.3 kmh N
Wind Gusts 26.0 mph41.8 kmh -- 11.0 mph17.7 kmh
Humidity 88% 41% 64%
Pressure 30.01 in1016.3 mb 29.63 in1003.4 mb -
Precipitation 0.00 in0.0 mm - -
Hour Temp Dew Point Humidity Winds Wind Gusts Pressure Precip Precip Rate Daily Precip Total
12:00 AM 56.3°F13.5°C 50.2°F10.1°C 80% 3.0 mph N4.8 kmh N 3.0 mph4.8 kmh 30.01 in1016.3 mb 0.00 in0.0 mm 0.00 in0.0 mm 0.00 in0.0 mm
12:05 AM 56.3°F13.5°C 50.2°F10.1°C 80% 2.0 mph N3.2 kmh N 4.0 mph6.4 kmh 30.01 in1016.3 mb 0.00 in0.0 mm 0.00 in0.0 mm 0.00 in0.0 mm
12:10 AM 56.3°F13.5°C 50.2°F10.1°C 80% 2.0 mph N3.2 kmh N 6.0 mph9.7 kmh 30.01 in1016.3 mb 0.00 in0.0 mm 0.00 in0.0 mm 0.00 in0.0 mm
12:15 AM 56.2°F13.4°C 50.1°F10.1°C 80% 1.0 mph N1.6 kmh N 2.0 mph3.2 kmh 30.00 in1015.9 mb 0.00 in0.0 mm 0.00 in0.0 mm 0.00 in0.0 mm
12:20 AM 56.2°F13.4°C 50.5°F10.3°C 81% 2.0 mph N3.2 kmh N 3.0 mph4.8 kmh 30.00 in1015.9 mb 0.00 in0.0 mm 0.00 in0.0 mm 0.00 in0.0 mm
12:25 AM 56.2°F13.4°C 50.5°F10.3°C 81% 3.0 mph N4.8 kmh N 3.0 mph4.8 kmh 30.00 in1015.9 mb 0.00 in0.0 mm 0.00 in0.0 mm 0.00 in0.0 mm
12:30 AM 56.2°F13.4°C 50.5°F10.3°C 81% 4.0 mph N6.4 kmh N 5.0 mph8.0 kmh 30.00 in1015.9 mb 0.00 in0.0 mm 0.00 in0.0 mm 0.00 in0.0 mm
12:35 AM 56.1°F13.4°C 50.4°F10.2°C 81% 4.0 mph N6.4 kmh N 5.0 mph8.0 kmh 30.00 in1015.9 mb 0.00 in0.0 mm 0.00 in0.0 mm 0.00 in0.0 mm
12:40 AM 56.1°F13.4°C 50.7°F10.4°C 82% 2.0 mph N3.2 kmh N 5.0 mph8.0 kmh 30.00 in1015.9 mb 0.00 in0.0 mm 0.00 in0.0 mm 0.00 in0.0 mm
12:45 AM 56.0°F13.3°C 50.6°F10.3°C 82% 3.0 mph N4.8 kmh N 3.0 mph4.8 kmh 29.99 in1015.6 mb 0.00 in0.0 mm 0.00 in0.0 mm 0.00 in0.0 mm
12:50 AM 55.9°F13.3°C 50.5°F10.3°C 82% 2.0 mph N3.2 kmh N 6.0 mph9.7 kmh 29.99 in1015.6 mb 0.00 in0.0 mm 0.00 in0.0 mm 0.00 in0.0 mm
12:55 AM 56.0°F13.3°C 50.6°F10.3°C 82% 2.0 mph N3.2 kmh N 7.0 mph11.3 kmh 29.99 in1015.6 mb 0.00 in0.0 mm 0.00 in0.0 mm 0.00 in0.0 mm
01:00 AM 56.0°F13.3°C 50.6°F10.3°C 82% 3.0 mph N4.8 kmh N 4.0 mph6.4 kmh 29.99 in1015.6 mb 0.00 in0.0 mm 0.00 in0.0 mm 0.00 in0.0 mm
01:05 AM 56.1°F13.4°C 50.7°F10.4°C 82% 3.0 mph N4.8 kmh N 7.0 mph11.3 kmh 29.99 in1015.6 mb 0.00 in0.0 mm 0.00 in0.0 mm 0.00 in0.0 mm
01:10 AM 56.1°F13.4°C 50.7°F10.4°C 82% 3.0 mph N4.8 kmh N 7.0 mph11.3 kmh 29.99 in1015.6 mb 0.00 in0.0 mm 0.00 in0.0 mm 0.00 in0.0 mm
01:15 AM 56.2°F13.4°C 50.5°F10.3°C 81% 4.0 mph N6.4 kmh N 4.0 mph6.4 kmh 29.99 in1015.6 mb 0.00 in0.0 mm 0.00 in0.0 mm 0.00 in0.0 mm
01:20 AM 56.3°F13.5°C 50.6°F10.3°C 81% 6.0 mph N9.7 kmh N 7.0 mph11.3 kmh 29.99 in1015.6 mb 0.00 in0.0 mm 0.00 in0.0 mm 0.00 in0.0 mm
01:25 AM 56.4°F13.6°C 50.3°F10.2°C 80% 4.0 mph N6.4 kmh N 7.0 mph11.3 kmh 29.99 in1015.6 mb 0.00 in0.0 mm 0.00 in0.0 mm 0.00 in0.0 mm
01:30 AM 56.4°F13.6°C 50.3°F10.2°C 80% 2.0 mph N3.2 kmh N 3.0 mph4.8 kmh 29.99 in1015.6 mb 0.00 in0.0 mm 0.00 in0.0 mm 0.00 in0.0 mm
01:35 AM 56.5°F13.6°C 50.4°F10.2°C 80% 2.0 mph N3.2 kmh N 7.0 mph11.3 kmh 30.00 in1015.9 mb 0.00 in0.0 mm 0.00 in0.0 mm 0.00 in0.0 mm
01:40 AM 56.5°F13.6°C 50.4°F10.2°C 80% 7.0 mph N11.3 kmh N 7.0 mph11.3 kmh 30.00 in1015.9 mb 0.00 in0.0 mm 0.00 in0.0 mm 0.00 in0.0 mm
01:45 AM 56.6°F13.7°C 50.5°F10.3°C 80% 1.0 mph N1.6 kmh N 3.0 mph4.8 kmh 30.00 in1015.9 mb 0.00 in0.0 mm 0.00 in0.0 mm 0.00 in0.0 mm
01:50 AM 56.6°F13.7°C 50.2°F10.1°C 79% 1.0 mph N1.6 kmh N 5.0 mph8.0 kmh 30.00 in1015.9 mb 0.00 in0.0 mm 0.00 in0.0 mm 0.00 in0.0 mm
01:55 AM 56.7°F13.7°C 49.9°F9.9°C 78% 5.0 mph N8.0 kmh N 6.0 mph9.7 kmh 30.00 in1015.9 mb 0.00 in0.0 mm 0.00 in0.0 mm 0.00 in0.0 mm
02:00 AM 56.8°F13.8°C 49.7°F9.8°C 77% 3.0 mph N4.8 kmh N 4.0 mph6.4 kmh 30.00 in1015.9 mb 0.00 in0.0 mm 0.00 in0.0 mm 0.00 in0.0 mm
02:05 AM 56.9°F13.8°C 49.4°F9.7°C 76% 3.0 mph N4.8 kmh N 6.0 mph9.7 kmh 30.00 in1015.9 mb 0.00 in0.0 mm 0.00 in0.0 mm 0.00 in0.0 mm
02:10 AM 56.9°F13.8°C 49.1°F9.5°C 75% 2.0 mph N3.2 kmh N 7.0 mph11.3 kmh 30.00 in1015.9 mb 0.00 in0.0 mm 0.00 in0.0 mm 0.00 in0.0 mm
02:15 AM 57.0°F13.9°C 49.2°F9.6°C 75% 2.0 mph N3.2 kmh N 4.0 mph6.4 kmh 29.99 in1015.6 mb 0.00 in0.0 mm 0.00 in0.0 mm 0.00 in0.0 mm
02:20 AM 57.0°F13.9°C 49.2°F9.6°C 75% 6.0 mph N9.7 kmh N 8.0 mph12.9 kmh 29.99 in1015.6 mb 0.00 in0.0 mm 0.00 in0.0 mm 0.00 in0.0 mm
02:25 AM 57.0°F13.9°C 48.8°F9.3°C 74% 4.0 mph N6.4 kmh N 8.0 mph12.9 kmh 29.99 in1015.6 mb 0.00 in0.0 mm 0.00 in0.0 mm 0.00 in0.0 mm
02:30 AM 57.0°F13.9°C 48.4°F9.1°C 73% 7.0 mph N11.3 kmh N 7.0 mph11.3 kmh 29.99 in1015.6 mb 0.00 in0.0 mm 0.00 in0.0 mm 0.00 in0.0 mm
02:35 AM 57.1°F13.9°C 48.2°F9.0°C 72% 2.0 mph N3.2 kmh N 7.0 mph11.3 kmh 29.99 in1015.6 mb 0.00 in0.0 mm 0.00 in0.0 mm 0.00 in0.0 mm
02:40 AM 57.2°F14.0°C 48.3°F9.1°C 72% 5.0 mph N8.0 kmh N 9.0 mph14.5 kmh 29.98 in1015.2 mb 0.00 in0.0 mm 0.00 in0.0 mm 0.00 in0.0 mm
02:45 AM 57.2°F14.0°C 49.7°F9.8°C 76% 3.0 mph N4.8 kmh N 5.0 mph8.0 kmh 29.98 in1015.2 mb 0.00 in0.0 mm 0.00 in0.0 mm 0.00 in0.0 mm
02:50 AM 56.9°F13.8°C 49.4°F9.7°C 76% 7.0 mph N11.3 kmh N 11.0 mph17.7 kmh 29.98 in1015.2 mb 0.00 in0.0 mm 0.00 in0.0 mm 0.00 in0.0 mm
02:55 AM 56.5°F13.6°C 49.4°F9.7°C 77% 5.0 mph N8.0 kmh N 11.0 mph17.7 kmh 29.99 in1015.6 mb 0.00 in0.0 mm 0.00 in0.0 mm 0.00 in0.0 mm
03:00 AM 56.1°F13.4°C 49.7°F9.8°C 79% Calm Calm -- 29.99 in1015.6 mb 0.00 in0.0 mm 0.00 in0.0 mm 0.00 in0.0 mm
03:05 AM 55.7°F13.2°C 50.0°F10.0°C 81% Calm Calm 4.0 mph6.4 kmh 29.99 in1015.6 mb 0.00 in0.0 mm 0.00 in0.0 mm 0.00 in0.0 mm
03:10 AM 55.5°F13.1°C 50.1°F10.1°C 82% 1.0 mph N1.6 kmh N 6.0 mph9.7 kmh 29.99 in1015.6 mb 0.00 in0.0 mm 0.00 in0.0 mm 0.00 in0.0 mm
03:15 AM 55.1°F12.8°C 50.0°F10.0°C 83% 9.0 mph N14.5 kmh N 9.0 mph14.5 kmh 29.98 in1015.2 mb 0.01 in0.3 mm 0.12 in3.0 mm 0.01 in0.3 mm
03:20 AM 54.9°F12.7°C 50.2°F10.1°C 84% 9.0 mph N14.5 kmh N 9.0 mph14.5 kmh 29.98 in1015.2 mb 0.01 in0.3 mm 0.00 in0.0 mm 0.01 in0.3 mm
03:25 AM 54.5°F12.5°C 50.4°F10.2°C 86% 5.0 mph N8.0 kmh N 10.0 mph16.1 kmh 29.97 in1014.9 mb 0.03 in0.8 mm 0.24 in6.1 mm 0.03 in0.8 mm
03:30 AM 54.1°F12.3°C 50.0°F10.0°C 86% 7.0 mph N11.3 kmh N 9.0 mph14.5 kmh 29.98 in1015.2 mb 0.03 in0.8 mm 0.00 in0.0 mm 0.03 in0.8 mm
03:35 AM 53.9°F12.2°C 49.8°F9.9°C 86% 3.0 mph N4.8 kmh N 9.0 mph14.5 kmh 29.99 in1015.6 mb 0.03 in0.8 mm 0.00 in0.0 mm 0.03 in0.8 mm
03:40 AM 53.8°F12.1°C 49.7°F9.8°C 86% 2.0 mph N3.2 kmh N 9.0 mph14.5 kmh 29.99 in1015.6 mb 0.03 in0.8 mm 0.00 in0.0 mm 0.03 in0.8 mm
03:45 AM 53.8°F12.1°C 50.0°F10.0°C 87% 1.0 mph N1.6 kmh N 2.0 mph3.2 kmh 29.99 in1015.6 mb 0.03 in0.8 mm 0.00 in0.0 mm 0.03 in0.8 mm
03:50 AM 53.9°F12.2°C 50.1°F10.1°C 87% 1.0 mph N1.6 kmh N 3.0 mph4.8 kmh 30.00 in1015.9 mb 0.04 in1.0 mm 0.12 in3.0 mm 0.04 in1.0 mm
03:55 AM 53.9°F12.2°C 50.1°F10.1°C 87% Calm Calm 3.0 mph4.8 kmh 30.00 in1015.9 mb 0.04 in1.0 mm 0.00 in0.0 mm 0.04 in1.0 mm
04:00 AM 53.9°F12.2°C 50.1°F10.1°C 87% 1.0 mph N1.6 kmh N 2.0 mph3.2 kmh 29.99 in1015.6 mb 0.06 in1.5 mm 0.02 in0.5 mm 0.06 in1.5 mm
04:05 AM 53.7°F12.1°C 49.9°F9.9°C 87% 3.0 mph N4.8 kmh N 5.0 mph8.0 kmh 29.99 in1015.6 mb 0.06 in1.5 mm 0.00 in0.0 mm 0.06 in1.5 mm
04:10 AM 53.6°F12.0°C 50.1°F10.1°C 88% 2.0 mph N3.2 kmh N 6.0 mph9.7 kmh 29.99 in1015.6 mb 0.06 in1.5 mm 0.00 in0.0 mm 0.06 in1.5 mm
04:15 AM 53.4°F11.9°C 49.6°F9.8°C 87% 2.0 mph N3.2 kmh N 3.0 mph4.8 kmh 29.99 in1015.6 mb 0.05 in1.3 mm 0.00 in0.0 mm 0.06 in1.5 mm
04:20 AM 53.4°F11.9°C 49.6°F9.8°C 87% 2.0 mph N3.2 kmh N 4.0 mph6.4 kmh 29.99 in1015.6 mb 0.05 in1.3 mm 0.00 in0.0 mm 0.06 in1.5 mm
04:25 AM 53.3°F11.8°C 49.5°F9.7°C 87% 2.0 mph N3.2 kmh N 6.0 mph9.7 kmh 29.99 in1015.6 mb 0.05 in1.3 mm 0.00 in0.0 mm 0.06 in1.5 mm
04:30 AM 53.2°F11.8°C 49.4°F9.7°C 87% Calm Calm 1.0 mph1.6 kmh 29.99 in1015.6 mb 0.03 in0.8 mm 0.00 in0.0 mm 0.06 in1.5 mm
04:35 AM 53.1°F11.7°C 49.3°F9.6°C 87% Calm Calm 5.0 mph8.0 kmh 29.99 in1015.6 mb 0.03 in0.8 mm 0.00 in0.0 mm 0.06 in1.5 mm
04:40 AM 53.2°F11.8°C 49.1°F9.5°C 86% 2.0 mph N3.2 kmh N 5.0 mph8.0 kmh 29.98 in1015.2 mb 0.03 in0.8 mm 0.00 in0.0 mm 0.06 in1.5 mm
04:45 AM 53.2°F11.8°C 48.5°F9.2°C 84% 7.0 mph N11.3 kmh N 7.0 mph11.3 kmh 29.98 in1015.2 mb 0.03 in0.8 mm 0.00 in0.0 mm 0.06 in1.5 mm
04:50 AM 53.3°F11.8°C 48.6°F9.2°C 84% 5.0 mph N8.0 kmh N 7.0 mph11.3 kmh 29.98 in1015.2 mb 0.03 in0.8 mm 0.00 in0.0 mm 0.06 in1.5 mm
04:55 AM 53.4°F11.9°C 48.4°F9.1°C 83% 3.0 mph N4.8 kmh N 7.0 mph11.3 kmh 29.99 in1015.6 mb 0.03 in0.8 mm 0.00 in0.0 mm 0.06 in1.5 mm
05:00 AM 53.4°F11.9°C 48.4°F9.1°C 83% 3.0 mph N4.8 kmh N 5.0 mph8.0 kmh 29.98 in1015.2 mb 0.00 in0.0 mm 0.00 in0.0 mm 0.06 in1.5 mm
05:05 AM 53.5°F11.9°C 48.8°F9.3°C 84% 5.0 mph N8.0 kmh N 5.0 mph8.0 kmh 29.99 in1015.6 mb 0.00 in0.0 mm 0.00 in0.0 mm 0.06 in1.5 mm
05:10 AM 53.5°F11.9°C 48.5°F9.2°C 83% 5.0 mph N8.0 kmh N 7.0 mph11.3 kmh 29.99 in1015.6 mb 0.00 in0.0 mm 0.00 in0.0 mm 0.06 in1.5 mm
05:15 AM 53.5°F11.9°C 48.5°F9.2°C 83% 5.0 mph N8.0 kmh N 6.0 mph9.7 kmh 29.99 in1015.6 mb 0.00 in0.0 mm 0.00 in0.0 mm 0.06 in1.5 mm
05:20 AM 53.6°F12.0°C 48.6°F9.2°C 83% 4.0 mph N6.4 kmh N 8.0 mph12.9 kmh 29.99 in1015.6 mb 0.00 in0.0 mm 0.00 in0.0 mm 0.06 in1.5 mm
05:25 AM 53.6°F12.0°C 48.9°F9.4°C 84% 5.0 mph N8.0 kmh N 8.0 mph12.9 kmh 29.99 in1015.6 mb 0.00 in0.0 mm 0.00 in0.0 mm 0.06 in1.5 mm
05:30 AM 53.7°F12.1°C 49.0°F9.4°C 84% 6.0 mph N9.7 kmh N 6.0 mph9.7 kmh 29.99 in1015.6 mb 0.00 in0.0 mm 0.00 in0.0 mm 0.06 in1.5 mm
05:35 AM 53.8°F12.1°C 49.1°F9.5°C 84% 4.0 mph N6.4 kmh N 10.0 mph16.1 kmh 29.99 in1015.6 mb 0.00 in0.0 mm 0.00 in0.0 mm 0.06 in1.5 mm
05:40 AM 53.9°F12.2°C 49.2°F9.6°C 84% 4.0 mph N6.4 kmh N 10.0 mph16.1 kmh 29.99 in1015.6 mb 0.00 in0.0 mm 0.00 in0.0 mm 0.06 in1.5 mm
05:45 AM 54.0°F12.2°C 49.3°F9.6°C 84% 5.0 mph N8.0 kmh N 5.0 mph8.0 kmh 29.98 in1015.2 mb 0.00 in0.0 mm 0.00 in0.0 mm 0.06 in1.5 mm
05:50 AM 54.0°F12.2°C 49.6°F9.8°C 85% 3.0 mph N4.8 kmh N 9.0 mph14.5 kmh 29.98 in1015.2 mb 0.00 in0.0 mm 0.00 in0.0 mm 0.06 in1.5 mm
05:55 AM 54.1°F12.3°C 49.4°F9.7°C 84% 4.0 mph N6.4 kmh N 9.0 mph14.5 kmh 29.98 in1015.2 mb 0.00 in0.0 mm 0.00 in0.0 mm 0.06 in1.5 mm
06:00 AM 54.1°F12.3°C 49.4°F9.7°C 84% 3.0 mph N4.8 kmh N 6.0 mph9.7 kmh 29.98 in1015.2 mb 0.00 in0.0 mm 0.00 in0.0 mm 0.06 in1.5 mm
06:05 AM 54.1°F12.3°C 49.1°F9.5°C 83% 5.0 mph N8.0 kmh N 10.0 mph16.1 kmh 29.97 in1014.9 mb 0.00 in0.0 mm 0.00 in0.0 mm 0.06 in1.5 mm
06:10 AM 54.1°F12.3°C 48.7°F9.3°C 82% 6.0 mph N9.7 kmh N 10.0 mph16.1 kmh 29.96 in1014.6 mb 0.00 in0.0 mm 0.00 in0.0 mm 0.06 in1.5 mm
06:15 AM 54.1°F12.3°C 48.4°F9.1°C 81% 3.0 mph N4.8 kmh N 5.0 mph8.0 kmh 29.96 in1014.6 mb 0.00 in0.0 mm 0.00 in0.0 mm 0.06 in1.5 mm
06:20 AM 54.2°F12.3°C 48.8°F9.3°C 82% 2.0 mph N3.2 kmh N 8.0 mph12.9 kmh 29.97 in1014.9 mb 0.00 in0.0 mm 0.00 in0.0 mm 0.06 in1.5 mm
06:25 AM 54.2°F12.3°C 48.8°F9.3°C 82% 2.0 mph N3.2 kmh N 8.0 mph12.9 kmh 29.98 in1015.2 mb 0.00 in0.0 mm 0.00 in0.0 mm 0.06 in1.5 mm
06:30 AM 54.2°F12.3°C 49.2°F9.6°C 83% 3.0 mph N4.8 kmh N 4.0 mph6.4 kmh 29.98 in1015.2 mb 0.00 in0.0 mm 0.00 in0.0 mm 0.06 in1.5 mm
06:35 AM 54.1°F12.3°C 49.1°F9.5°C 83% 3.0 mph N4.8 kmh N 4.0 mph6.4 kmh 29.98 in1015.2 mb 0.01 in0.3 mm 0.12 in3.0 mm 0.07 in1.8 mm
06:40 AM 54.1°F12.3°C 49.4°F9.7°C 84% 2.0 mph N3.2 kmh N 4.0 mph6.4 kmh 29.98 in1015.2 mb 0.01 in0.3 mm 0.00 in0.0 mm 0.07 in1.8 mm
06:45 AM 54.0°F12.2°C 49.3°F9.6°C 84% 6.0 mph N9.7 kmh N 6.0 mph9.7 kmh 29.98 in1015.2 mb 0.03 in0.8 mm 0.24 in6.1 mm 0.09 in2.3 mm
06:50 AM 53.6°F12.0°C 48.9°F9.4°C 84% 6.0 mph N9.7 kmh N 9.0 mph14.5 kmh 29.98 in1015.2 mb 0.04 in1.0 mm 0.12 in3.0 mm 0.10 in2.5 mm
06:55 AM 53.4°F11.9°C 49.0°F9.4°C 85% 3.0 mph N4.8 kmh N 9.0 mph14.5 kmh 29.97 in1014.9 mb 0.04 in1.0 mm 0.00 in0.0 mm 0.10 in2.5 mm
07:00 AM 53.2°F11.8°C 48.8°F9.3°C 85% 5.0 mph N8.0 kmh N 8.0 mph12.9 kmh 29.97 in1014.9 mb 0.04 in1.0 mm 0.00 in0.0 mm 0.10 in2.5 mm
07:05 AM 53.1°F11.7°C 48.7°F9.3°C 85% 6.0 mph N9.7 kmh N 12.0 mph19.3 kmh 29.97 in1014.9 mb 0.04 in1.0 mm 0.00 in0.0 mm 0.10 in2.5 mm
07:10 AM 53.2°F11.8°C 49.1°F9.5°C 86% 7.0 mph N11.3 kmh N 12.0 mph19.3 kmh 29.97 in1014.9 mb 0.04 in1.0 mm 0.00 in0.0 mm 0.10 in2.5 mm
07:15 AM 53.2°F11.8°C 48.8°F9.3°C 85% 9.0 mph N14.5 kmh N 9.0 mph14.5 kmh 29.97 in1014.9 mb 0.04 in1.0 mm 0.00 in0.0 mm 0.10 in2.5 mm
07:20 AM 53.3°F11.8°C 48.9°F9.4°C 85% 3.0 mph N4.8 kmh N 9.0 mph14.5 kmh 29.98 in1015.2 mb 0.04 in1.0 mm 0.00 in0.0 mm 0.10 in2.5 mm
07:25 AM 53.4°F11.9°C 49.0°F9.4°C 85% 8.0 mph N12.9 kmh N 10.0 mph16.1 kmh 29.97 in1014.9 mb 0.04 in1.0 mm 0.00 in0.0 mm 0.10 in2.5 mm
07:30 AM 53.5°F11.9°C 48.8°F9.3°C 84% 4.0 mph N6.4 kmh N 7.0 mph11.3 kmh 29.97 in1014.9 mb 0.04 in1.0 mm 0.00 in0.0 mm 0.10 in2.5 mm
07:35 AM 53.7°F12.1°C 49.0°F9.4°C 84% 7.0 mph N11.3 kmh N 10.0 mph16.1 kmh 29.97 in1014.9 mb 0.04 in1.0 mm 0.00 in0.0 mm 0.10 in2.5 mm
07:40 AM 54.0°F12.2°C 49.0°F9.4°C 83% 10.0 mph N16.1 kmh N 12.0 mph19.3 kmh 29.96 in1014.6 mb 0.04 in1.0 mm 0.00 in0.0 mm 0.10 in2.5 mm
07:45 AM 54.2°F12.3°C 48.5°F9.2°C 81% 4.0 mph N6.4 kmh N 10.0 mph16.1 kmh 29.96 in1014.6 mb 0.01 in0.3 mm 0.00 in0.0 mm 0.10 in2.5 mm
07:50 AM 54.7°F12.6°C 48.3°F9.1°C 79% 7.0 mph N11.3 kmh N 14.0 mph22.5 kmh 29.95 in1014.2 mb 0.01 in0.3 mm 0.00 in0.0 mm 0.10 in2.5 mm
07:55 AM 55.1°F12.8°C 48.0°F8.9°C 77% 4.0 mph N6.4 kmh N 14.0 mph22.5 kmh 29.95 in1014.2 mb 0.01 in0.3 mm 0.00 in0.0 mm 0.10 in2.5 mm
08:00 AM 55.5°F13.1°C 48.4°F9.1°C 77% 7.0 mph N11.3 kmh N 10.0 mph16.1 kmh 29.95 in1014.2 mb 0.00 in0.0 mm 0.00 in0.0 mm 0.10 in2.5 mm
08:05 AM 56.1°F13.4°C 49.3°F9.6°C 78% 8.0 mph N12.9 kmh N 15.0 mph24.1 kmh 29.95 in1014.2 mb 0.00 in0.0 mm 0.00 in0.0 mm 0.10 in2.5 mm
08:10 AM 56.8°F13.8°C 49.3°F9.6°C 76% 8.0 mph N12.9 kmh N 15.0 mph24.1 kmh 29.94 in1013.9 mb 0.00 in0.0 mm 0.00 in0.0 mm 0.10 in2.5 mm
08:15 AM 57.5°F14.2°C 48.9°F9.4°C 73% 5.0 mph N8.0 kmh N 11.0 mph17.7 kmh 29.94 in1013.9 mb 0.00 in0.0 mm 0.00 in0.0 mm 0.10 in2.5 mm
08:20 AM 57.8°F14.3°C 49.6°F9.8°C 74% 8.0 mph N12.9 kmh N 14.0 mph22.5 kmh 29.94 in1013.9 mb 0.00 in0.0 mm 0.00 in0.0 mm 0.10 in2.5 mm
08:25 AM 58.1°F14.5°C 49.5°F9.7°C 73% 12.0 mph N19.3 kmh N 14.0 mph22.5 kmh 29.94 in1013.9 mb 0.00 in0.0 mm 0.00 in0.0 mm 0.10 in2.5 mm
08:30 AM 58.8°F14.9°C 49.1°F9.5°C 70% 10.0 mph N16.1 kmh N 17.0 mph27.4 kmh 29.94 in1013.9 mb 0.00 in0.0 mm 0.00 in0.0 mm 0.10 in2.5 mm
08:35 AM 59.3°F15.2°C 47.6°F8.7°C 65% 12.0 mph N19.3 kmh N 24.0 mph38.6 kmh 29.94 in1013.9 mb 0.00 in0.0 mm 0.00 in0.0 mm 0.10 in2.5 mm
08:40 AM 59.5°F15.3°C 47.7°F8.7°C 65% 14.0 mph N22.5 kmh N 24.0 mph38.6 kmh 29.94 in1013.9 mb 0.00 in0.0 mm 0.00 in0.0 mm 0.10 in2.5 mm
08:45 AM 59.5°F15.3°C 47.7°F8.7°C 65% 8.0 mph N12.9 kmh N 11.0 mph17.7 kmh 29.94 in1013.9 mb 0.00 in0.0 mm 0.00 in0.0 mm 0.10 in2.5 mm
08:50 AM 59.5°F15.3°C 48.6°F9.2°C 67% 4.0 mph N6.4 kmh N 18.0 mph29.0 kmh 29.94 in1013.9 mb 0.00 in0.0 mm 0.00 in0.0 mm 0.10 in2.5 mm
08:55 AM 59.6°F15.3°C 49.4°F9.7°C 69% 7.0 mph N11.3 kmh N 18.0 mph29.0 kmh 29.93 in1013.5 mb 0.00 in0.0 mm 0.00 in0.0 mm 0.10 in2.5 mm
09:00 AM 59.6°F15.3°C 48.2°F9.0°C 66% 9.0 mph N14.5 kmh N 9.0 mph14.5 kmh 29.93 in1013.5 mb 0.00 in0.0 mm 0.00 in0.0 mm 0.10 in2.5 mm
09:05 AM 59.7°F15.4°C 48.3°F9.1°C 66% 11.0 mph N17.7 kmh N 16.0 mph25.7 kmh 29.93 in1013.5 mb 0.00 in0.0 mm 0.00 in0.0 mm 0.10 in2.5 mm
09:10 AM 59.9°F15.5°C 48.9°F9.4°C 67% 12.0 mph N19.3 kmh N 16.0 mph25.7 kmh 29.93 in1013.5 mb 0.00 in0.0 mm 0.00 in0.0 mm 0.10 in2.5 mm
09:15 AM 60.2°F15.7°C 48.8°F9.3°C 66% 9.0 mph N14.5 kmh N 14.0 mph22.5 kmh 29.93 in1013.5 mb 0.00 in0.0 mm 0.00 in0.0 mm 0.10 in2.5 mm
09:20 AM 60.2°F15.7°C 48.4°F9.1°C 65% 18.0 mph N29.0 kmh N 22.0 mph35.4 kmh 29.93 in1013.5 mb 0.00 in0.0 mm 0.00 in0.0 mm 0.10 in2.5 mm
09:25 AM 60.1°F15.6°C 47.9°F8.8°C 64% 12.0 mph N19.3 kmh N 22.0 mph35.4 kmh 29.93 in1013.5 mb 0.00 in0.0 mm 0.00 in0.0 mm 0.10 in2.5 mm
09:30 AM 60.1°F15.6°C 48.3°F9.1°C 65% 10.0 mph N16.1 kmh N 10.0 mph16.1 kmh 29.93 in1013.5 mb 0.00 in0.0 mm 0.00 in0.0 mm 0.10 in2.5 mm
09:35 AM 60.0°F15.6°C 47.0°F8.3°C 62% 11.0 mph N17.7 kmh N 17.0 mph27.4 kmh 29.93 in1013.5 mb 0.00 in0.0 mm 0.00 in0.0 mm 0.10 in2.5 mm
09:40 AM 60.0°F15.6°C 47.8°F8.8°C 64% 12.0 mph N19.3 kmh N 17.0 mph27.4 kmh 29.93 in1013.5 mb 0.00 in0.0 mm 0.00 in0.0 mm 0.10 in2.5 mm
09:45 AM 60.1°F15.6°C 46.6°F8.1°C 61% 9.0 mph N14.5 kmh N 11.0 mph17.7 kmh 29.92 in1013.2 mb 0.00 in0.0 mm 0.00 in0.0 mm 0.10 in2.5 mm
09:50 AM 60.2°F15.7°C 46.7°F8.2°C 61% 12.0 mph N19.3 kmh N 19.0 mph30.6 kmh 29.92 in1013.2 mb 0.00 in0.0 mm 0.00 in0.0 mm 0.10 in2.5 mm
09:55 AM 60.5°F15.8°C 47.0°F8.3°C 61% 10.0 mph N16.1 kmh N 19.0 mph30.6 kmh 29.92 in1013.2 mb 0.00 in0.0 mm 0.00 in0.0 mm 0.10 in2.5 mm
10:00 AM 60.7°F15.9°C 47.6°F8.7°C 62% 10.0 mph N16.1 kmh N 10.0 mph16.1 kmh 29.91 in1012.9 mb 0.00 in0.0 mm 0.00 in0.0 mm 0.10 in2.5 mm
10:05 AM 61.1°F16.2°C 48.0°F8.9°C 62% 14.0 mph N22.5 kmh N 17.0 mph27.4 kmh 29.92 in1013.2 mb 0.00 in0.0 mm 0.00 in0.0 mm 0.10 in2.5 mm
10:10 AM 61.5°F16.4°C 47.9°F8.8°C 61% 10.0 mph N16.1 kmh N 17.0 mph27.4 kmh 29.92 in1013.2 mb 0.00 in0.0 mm 0.00 in0.0 mm 0.10 in2.5 mm
10:15 AM 61.9°F16.6°C 47.9°F8.8°C 60% 13.0 mph N20.9 kmh N 13.0 mph20.9 kmh 29.92 in1013.2 mb 0.00 in0.0 mm 0.00 in0.0 mm 0.10 in2.5 mm
10:20 AM 62.2°F16.8°C 47.3°F8.5°C 58% 10.0 mph N16.1 kmh N 20.0 mph32.2 kmh 29.91 in1012.9 mb 0.00 in0.0 mm 0.00 in0.0 mm 0.10 in2.5 mm
10:25 AM 62.6°F17.0°C 47.6°F8.7°C 58% 7.0 mph N11.3 kmh N 20.0 mph32.2 kmh 29.91 in1012.9 mb 0.00 in0.0 mm 0.00 in0.0 mm 0.10 in2.5 mm
10:30 AM 63.1°F17.3°C 48.1°F8.9°C 58% 5.0 mph N8.0 kmh N 9.0 mph14.5 kmh 29.91 in1012.9 mb 0.00 in0.0 mm 0.00 in0.0 mm 0.10 in2.5 mm
10:35 AM 63.8°F17.7°C 48.3°F9.1°C 57% 2.0 mph N3.2 kmh N 18.0 mph29.0 kmh 29.91 in1012.9 mb 0.00 in0.0 mm 0.00 in0.0 mm 0.10 in2.5 mm
10:40 AM 64.3°F17.9°C 48.8°F9.3°C 57% 10.0 mph N16.1 kmh N 18.0 mph29.0 kmh 29.91 in1012.9 mb 0.00 in0.0 mm 0.00 in0.0 mm 0.10 in2.5 mm
10:45 AM 64.5°F18.1°C 48.5°F9.2°C 56% 8.0 mph N12.9 kmh N 11.0 mph17.7 kmh 29.90 in1012.5 mb 0.00 in0.0 mm 0.00 in0.0 mm 0.10 in2.5 mm
10:50 AM 65.1°F18.4°C 49.5°F9.7°C 57% 4.0 mph N6.4 kmh N 13.0 mph20.9 kmh 29.90 in1012.5 mb 0.00 in0.0 mm 0.00 in0.0 mm 0.10 in2.5 mm
10:55 AM 65.8°F18.8°C 49.2°F9.6°C 55% 14.0 mph N22.5 kmh N 16.0 mph25.7 kmh 29.90 in1012.5 mb 0.00 in0.0 mm 0.00 in0.0 mm 0.10 in2.5 mm
11:00 AM 65.9°F18.8°C 49.3°F9.6°C 55% 4.0 mph N6.4 kmh N 6.0 mph9.7 kmh 29.89 in1012.2 mb 0.00 in0.0 mm 0.00 in0.0 mm 0.10 in2.5 mm
11:05 AM 66.4°F19.1°C 49.3°F9.6°C 54% 9.0 mph N14.5 kmh N 16.0 mph25.7 kmh 29.89 in1012.2 mb 0.00 in0.0 mm 0.00 in0.0 mm 0.10 in2.5 mm
11:10 AM 66.5°F19.2°C 49.9°F9.9°C 55% 14.0 mph N22.5 kmh N 18.0 mph29.0 kmh 29.89 in1012.2 mb 0.00 in0.0 mm 0.00 in0.0 mm 0.10 in2.5 mm
11:15 AM 66.8°F19.3°C 49.1°F9.5°C 53% 9.0 mph N14.5 kmh N 14.0 mph22.5 kmh 29.89 in1012.2 mb 0.00 in0.0 mm 0.00 in0.0 mm 0.10 in2.5 mm
11:20 AM 67.1°F19.5°C 49.4°F9.7°C 53% 4.0 mph N6.4 kmh N 16.0 mph25.7 kmh 29.89 in1012.2 mb 0.00 in0.0 mm 0.00 in0.0 mm 0.10 in2.5 mm
11:25 AM 67.0°F19.4°C 49.8°F9.9°C 54% 6.0 mph N9.7 kmh N 16.0 mph25.7 kmh 29.89 in1012.2 mb 0.00 in0.0 mm 0.00 in0.0 mm 0.10 in2.5 mm
11:30 AM 67.0°F19.4°C 49.8°F9.9°C 54% 11.0 mph N17.7 kmh N 12.0 mph19.3 kmh 29.88 in1011.9 mb 0.00 in0.0 mm 0.00 in0.0 mm 0.10 in2.5 mm
11:35 AM 67.6°F19.8°C 50.4°F10.2°C 54% 14.0 mph N22.5 kmh N 17.0 mph27.4 kmh 29.88 in1011.9 mb 0.00 in0.0 mm 0.00 in0.0 mm 0.10 in2.5 mm
11:40 AM 68.1°F20.1°C 50.3°F10.2°C 53% 10.0 mph N16.1 kmh N 17.0 mph27.4 kmh 29.87 in1011.5 mb 0.00 in0.0 mm 0.00 in0.0 mm 0.10 in2.5 mm
11:45 AM 68.5°F20.3°C 51.2°F10.7°C 54% 8.0 mph N12.9 kmh N 9.0 mph14.5 kmh 29.87 in1011.5 mb 0.00 in0.0 mm 0.00 in0.0 mm 0.10 in2.5 mm
11:50 AM 68.8°F20.4°C 50.5°F10.3°C 52% 9.0 mph N14.5 kmh N 16.0 mph25.7 kmh 29.87 in1011.5 mb 0.00 in0.0 mm 0.00 in0.0 mm 0.10 in2.5 mm
11:55 AM 69.2°F20.7°C 50.3°F10.2°C 51% 15.0 mph N24.1 kmh N 18.0 mph29.0 kmh 29.87 in1011.5 mb 0.00 in0.0 mm 0.00 in0.0 mm 0.10 in2.5 mm
12:00 PM 69.5°F20.8°C 51.1°F10.6°C 52% 10.0 mph N16.1 kmh N 15.0 mph24.1 kmh 29.86 in1011.2 mb 0.00 in0.0 mm 0.00 in0.0 mm 0.10 in2.5 mm
12:05 PM 69.8°F21.0°C 50.9°F10.5°C 51% 7.0 mph N11.3 kmh N 18.0 mph29.0 kmh 29.86 in1011.2 mb 0.00 in0.0 mm 0.00 in0.0 mm 0.10 in2.5 mm
12:10 PM 70.1°F21.2°C 50.6°F10.3°C 50% 9.0 mph N14.5 kmh N 19.0 mph30.6 kmh 29.86 in1011.2 mb 0.00 in0.0 mm 0.00 in0.0 mm 0.10 in2.5 mm
12:15 PM 70.1°F21.2°C 50.6°F10.3°C 50% 15.0 mph N24.1 kmh N 15.0 mph24.1 kmh 29.86 in1011.2 mb 0.00 in0.0 mm 0.00 in0.0 mm 0.10 in2.5 mm
12:20 PM 69.9°F21.1°C 50.4°F10.2°C 50% 12.0 mph N19.3 kmh N 24.0 mph38.6 kmh 29.85 in1010.8 mb 0.00 in0.0 mm 0.00 in0.0 mm 0.10 in2.5 mm
12:25 PM 69.9°F21.1°C 49.9°F9.9°C 49% 11.0 mph N17.7 kmh N 24.0 mph38.6 kmh 29.85 in1010.8 mb 0.00 in0.0 mm 0.00 in0.0 mm 0.10 in2.5 mm
12:30 PM 70.1°F21.2°C 50.6°F10.3°C 50% 14.0 mph N22.5 kmh N 15.0 mph24.1 kmh 29.85 in1010.8 mb 0.00 in0.0 mm 0.00 in0.0 mm 0.10 in2.5 mm
12:35 PM 70.4°F21.3°C 50.4°F10.2°C 49% 9.0 mph N14.5 kmh N 21.0 mph33.8 kmh 29.84 in1010.5 mb 0.00 in0.0 mm 0.00 in0.0 mm 0.10 in2.5 mm
12:40 PM 70.6°F21.4°C 51.6°F10.9°C 51% 14.0 mph N22.5 kmh N 21.0 mph33.8 kmh 29.84 in1010.5 mb 0.00 in0.0 mm 0.00 in0.0 mm 0.10 in2.5 mm
12:45 PM 71.3°F21.8°C 51.2°F10.7°C 49% 6.0 mph N9.7 kmh N 14.0 mph22.5 kmh 29.84 in1010.5 mb 0.00 in0.0 mm 0.00 in0.0 mm 0.10 in2.5 mm
12:50 PM 71.9°F22.2°C 51.2°F10.7°C 48% 11.0 mph N17.7 kmh N 24.0 mph38.6 kmh 29.83 in1010.2 mb 0.00 in0.0 mm 0.00 in0.0 mm 0.10 in2.5 mm
12:55 PM 72.3°F22.4°C 52.1°F11.2°C 49% 6.0 mph N9.7 kmh N 24.0 mph38.6 kmh 29.83 in1010.2 mb 0.00 in0.0 mm 0.00 in0.0 mm 0.10 in2.5 mm
01:00 PM 72.1°F22.3°C 50.8°F10.4°C 47% 18.0 mph N29.0 kmh N 18.0 mph29.0 kmh 29.83 in1010.2 mb 0.00 in0.0 mm 0.00 in0.0 mm 0.10 in2.5 mm
01:05 PM 72.0°F22.2°C 50.7°F10.4°C 47% 10.0 mph N16.1 kmh N 21.0 mph33.8 kmh 29.83 in1010.2 mb 0.00 in0.0 mm 0.00 in0.0 mm 0.10 in2.5 mm
01:10 PM 71.7°F22.1°C 50.4°F10.2°C 47% 11.0 mph N17.7 kmh N 24.0 mph38.6 kmh 29.83 in1010.2 mb 0.00 in0.0 mm 0.00 in0.0 mm 0.10 in2.5 mm
01:15 PM 71.6°F22.0°C 50.9°F10.5°C 48% 11.0 mph N17.7 kmh N 16.0 mph25.7 kmh 29.83 in1010.2 mb 0.00 in0.0 mm 0.00 in0.0 mm 0.10 in2.5 mm
01:20 PM 71.7°F22.1°C 51.0°F10.6°C 48% 5.0 mph N8.0 kmh N 24.0 mph38.6 kmh 29.82 in1009.8 mb 0.00 in0.0 mm 0.00 in0.0 mm 0.10 in2.5 mm
01:25 PM 72.1°F22.3°C 50.2°F10.1°C 46% 7.0 mph N11.3 kmh N 24.0 mph38.6 kmh 29.82 in1009.8 mb 0.00 in0.0 mm 0.00 in0.0 mm 0.10 in2.5 mm
01:30 PM 72.3°F22.4°C 50.4°F10.2°C 46% 16.0 mph N25.7 kmh N 16.0 mph25.7 kmh 29.82 in1009.8 mb 0.00 in0.0 mm 0.00 in0.0 mm 0.10 in2.5 mm
01:35 PM 72.8°F22.7°C 51.4°F10.8°C 47% 9.0 mph N14.5 kmh N 19.0 mph30.6 kmh 29.82 in1009.8 mb 0.00 in0.0 mm 0.00 in0.0 mm 0.10 in2.5 mm
01:40 PM 73.6°F23.1°C 51.6°F10.9°C 46% 12.0 mph N19.3 kmh N 24.0 mph38.6 kmh 29.81 in1009.5 mb 0.00 in0.0 mm 0.00 in0.0 mm 0.10 in2.5 mm
01:45 PM 74.1°F23.4°C 51.4°F10.8°C 45% 3.0 mph N4.8 kmh N 13.0 mph20.9 kmh 29.81 in1009.5 mb 0.00 in0.0 mm 0.00 in0.0 mm 0.10 in2.5 mm
01:50 PM 74.3°F23.5°C 51.0°F10.6°C 44% 10.0 mph N16.1 kmh N 18.0 mph29.0 kmh 29.81 in1009.5 mb 0.00 in0.0 mm 0.00 in0.0 mm 0.10 in2.5 mm
01:55 PM 74.1°F23.4°C 51.4°F10.8°C 45% 6.0 mph N9.7 kmh N 19.0 mph30.6 kmh 29.81 in1009.5 mb 0.00 in0.0 mm 0.00 in0.0 mm 0.10 in2.5 mm
02:00 PM 74.3°F23.5°C 51.6°F10.9°C 45% 14.0 mph N22.5 kmh N 14.0 mph22.5 kmh 29.80 in1009.1 mb 0.00 in0.0 mm 0.00 in0.0 mm 0.10 in2.5 mm
02:05 PM 74.4°F23.6°C 51.7°F10.9°C 45% 13.0 mph N20.9 kmh N 18.0 mph29.0 kmh 29.80 in1009.1 mb 0.00 in0.0 mm 0.00 in0.0 mm 0.10 in2.5 mm
02:10 PM 74.5°F23.6°C 52.4°F11.3°C 46% 13.0 mph N20.9 kmh N 19.0 mph30.6 kmh 29.80 in1009.1 mb 0.00 in0.0 mm 0.00 in0.0 mm 0.10 in2.5 mm
02:15 PM 74.7°F23.7°C 52.0°F11.1°C 45% 11.0 mph N17.7 kmh N 12.0 mph19.3 kmh 29.80 in1009.1 mb 0.00 in0.0 mm 0.00 in0.0 mm 0.10 in2.5 mm
02:20 PM 74.5°F23.6°C 51.8°F11.0°C 45% 12.0 mph N19.3 kmh N 18.0 mph29.0 kmh 29.79 in1008.8 mb 0.00 in0.0 mm 0.00 in0.0 mm 0.10 in2.5 mm
02:25 PM 74.4°F23.6°C 51.7°F10.9°C 45% 9.0 mph N14.5 kmh N 18.0 mph29.0 kmh 29.79 in1008.8 mb 0.00 in0.0 mm 0.00 in0.0 mm 0.10 in2.5 mm
02:30 PM 74.5°F23.6°C 52.4°F11.3°C 46% 12.0 mph N19.3 kmh N 26.0 mph41.8 kmh 29.79 in1008.8 mb 0.00 in0.0 mm 0.00 in0.0 mm 0.10 in2.5 mm
02:35 PM 75.3°F24.1°C 53.7°F12.1°C 47% 12.0 mph N19.3 kmh N 26.0 mph41.8 kmh 29.79 in1008.8 mb 0.00 in0.0 mm 0.00 in0.0 mm 0.10 in2.5 mm
02:40 PM 76.1°F24.5°C 53.8°F12.1°C 46% 10.0 mph N16.1 kmh N 26.0 mph41.8 kmh 29.78 in1008.5 mb 0.00 in0.0 mm 0.00 in0.0 mm 0.10 in2.5 mm
02:45 PM 76.4°F24.7°C 54.1°F12.3°C 46% 8.0 mph N12.9 kmh N 13.0 mph20.9 kmh 29.78 in1008.5 mb 0.00 in0.0 mm 0.00 in0.0 mm 0.10 in2.5 mm
02:50 PM 76.0°F24.4°C 53.2°F11.8°C 45% 9.0 mph N14.5 kmh N 18.0 mph29.0 kmh 29.78 in1008.5 mb 0.00 in0.0 mm 0.00 in0.0 mm 0.10 in2.5 mm
02:55 PM 75.5°F24.2°C 53.3°F11.8°C 46% 15.0 mph N24.1 kmh N 20.0 mph32.2 kmh 29.78 in1008.5 mb 0.00 in0.0 mm 0.00 in0.0 mm 0.10 in2.5 mm
03:00 PM 75.3°F24.1°C 53.7°F12.1°C 47% 11.0 mph N17.7 kmh N 11.0 mph17.7 kmh 29.78 in1008.5 mb 0.00 in0.0 mm 0.00 in0.0 mm 0.10 in2.5 mm
03:05 PM 75.3°F24.1°C 53.7°F12.1°C 47% 20.0 mph N32.2 kmh N 20.0 mph32.2 kmh 29.78 in1008.5 mb 0.00 in0.0 mm 0.00 in0.0 mm 0.10 in2.5 mm
03:10 PM 76.0°F24.4°C 54.3°F12.4°C 47% 14.0 mph N22.5 kmh N 20.0 mph32.2 kmh 29.77 in1008.1 mb 0.00 in0.0 mm 0.00 in0.0 mm 0.10 in2.5 mm
03:15 PM 76.7°F24.8°C 55.0°F12.8°C 47% 14.0 mph N22.5 kmh N 14.0 mph22.5 kmh 29.77 in1008.1 mb 0.00 in0.0 mm 0.00 in0.0 mm 0.10 in2.5 mm
03:20 PM 77.3°F25.2°C 54.9°F12.7°C 46% 17.0 mph N27.4 kmh N 19.0 mph30.6 kmh 29.77 in1008.1 mb 0.00 in0.0 mm 0.00 in0.0 mm 0.10 in2.5 mm
03:25 PM 77.0°F25.0°C 54.7°F12.6°C 46% 9.0 mph N14.5 kmh N 21.0 mph33.8 kmh 29.76 in1007.8 mb 0.00 in0.0 mm 0.00 in0.0 mm 0.10 in2.5 mm
03:30 PM 77.2°F25.1°C 54.8°F12.7°C 46% 7.0 mph N11.3 kmh N 14.0 mph22.5 kmh 29.76 in1007.8 mb 0.00 in0.0 mm 0.00 in0.0 mm 0.10 in2.5 mm
03:35 PM 77.1°F25.1°C 55.3°F12.9°C 47% 8.0 mph N12.9 kmh N 18.0 mph29.0 kmh 29.76 in1007.8 mb 0.00 in0.0 mm 0.00 in0.0 mm 0.10 in2.5 mm
03:40 PM 76.7°F24.8°C 54.4°F12.4°C 46% 5.0 mph N8.0 kmh N 18.0 mph29.0 kmh 29.76 in1007.8 mb 0.00 in0.0 mm 0.00 in0.0 mm 0.10 in2.5 mm
03:45 PM 76.7°F24.8°C 55.0°F12.8°C 47% 9.0 mph N14.5 kmh N 9.0 mph14.5 kmh 29.76 in1007.8 mb 0.00 in0.0 mm 0.00 in0.0 mm 0.10 in2.5 mm
03:50 PM 77.4°F25.2°C 56.2°F13.4°C 48% 4.0 mph N6.4 kmh N 18.0 mph29.0 kmh 29.76 in1007.8 mb 0.00 in0.0 mm 0.00 in0.0 mm 0.10 in2.5 mm
03:55 PM 77.9°F25.5°C 56.1°F13.4°C 47% 8.0 mph N12.9 kmh N 18.0 mph29.0 kmh 29.75 in1007.5 mb 0.00 in0.0 mm 0.00 in0.0 mm 0.10 in2.5 mm
04:00 PM 78.3°F25.7°C 56.4°F13.6°C 47% 14.0 mph N22.5 kmh N 19.0 mph30.6 kmh 29.75 in1007.5 mb 0.00 in0.0 mm 0.00 in0.0 mm 0.10 in2.5 mm
04:05 PM 78.5°F25.8°C 56.6°F13.7°C 47% 12.0 mph N19.3 kmh N 19.0 mph30.6 kmh 29.74 in1007.1 mb 0.00 in0.0 mm 0.00 in0.0 mm 0.10 in2.5 mm
04:10 PM 78.3°F25.7°C 56.4°F13.6°C 47% 8.0 mph N12.9 kmh N 19.0 mph30.6 kmh 29.75 in1007.5 mb 0.00 in0.0 mm 0.00 in0.0 mm 0.10 in2.5 mm
04:15 PM 78.4°F25.8°C 56.5°F13.6°C 47% 12.0 mph N19.3 kmh N 15.0 mph24.1 kmh 29.74 in1007.1 mb 0.00 in0.0 mm 0.00 in0.0 mm 0.10 in2.5 mm
04:20 PM 78.4°F25.8°C 56.5°F13.6°C 47% 12.0 mph N19.3 kmh N 19.0 mph30.6 kmh 29.73 in1006.8 mb 0.00 in0.0 mm 0.00 in0.0 mm 0.10 in2.5 mm
04:25 PM 78.6°F25.9°C 56.7°F13.7°C 47% 13.0 mph N20.9 kmh N 22.0 mph35.4 kmh 29.73 in1006.8 mb 0.00 in0.0 mm 0.00 in0.0 mm 0.10 in2.5 mm
04:30 PM 79.0°F26.1°C 57.1°F13.9°C 47% 8.0 mph N12.9 kmh N 10.0 mph16.1 kmh 29.73 in1006.8 mb 0.00 in0.0 mm 0.00 in0.0 mm 0.10 in2.5 mm
04:35 PM 79.4°F26.3°C 56.8°F13.8°C 46% 19.0 mph N30.6 kmh N 19.0 mph30.6 kmh 29.73 in1006.8 mb 0.00 in0.0 mm 0.00 in0.0 mm 0.10 in2.5 mm
04:40 PM 78.9°F26.1°C 57.0°F13.9°C 47% 14.0 mph N22.5 kmh N 19.0 mph30.6 kmh 29.73 in1006.8 mb 0.00 in0.0 mm 0.00 in0.0 mm 0.10 in2.5 mm
04:45 PM 78.1°F25.6°C 56.8°F13.8°C 48% 7.0 mph N11.3 kmh N 12.0 mph19.3 kmh 29.73 in1006.8 mb 0.00 in0.0 mm 0.00 in0.0 mm 0.10 in2.5 mm
04:50 PM 77.6°F25.3°C 56.4°F13.6°C 48% 12.0 mph N19.3 kmh N 16.0 mph25.7 kmh 29.73 in1006.8 mb 0.00 in0.0 mm 0.00 in0.0 mm 0.10 in2.5 mm
04:55 PM 77.5°F25.3°C 57.4°F14.1°C 50% 11.0 mph N17.7 kmh N 18.0 mph29.0 kmh 29.72 in1006.4 mb 0.00 in0.0 mm 0.00 in0.0 mm 0.10 in2.5 mm
05:00 PM 78.0°F25.6°C 57.9°F14.4°C 50% 12.0 mph N19.3 kmh N 12.0 mph19.3 kmh 29.72 in1006.4 mb 0.00 in0.0 mm 0.00 in0.0 mm 0.10 in2.5 mm
05:05 PM 78.4°F25.8°C 57.7°F14.3°C 49% 9.0 mph N14.5 kmh N 13.0 mph20.9 kmh 29.72 in1006.4 mb 0.00 in0.0 mm 0.00 in0.0 mm 0.10 in2.5 mm
05:10 PM 78.6°F25.9°C 57.9°F14.4°C 49% 8.0 mph N12.9 kmh N 14.0 mph22.5 kmh 29.72 in1006.4 mb 0.00 in0.0 mm 0.00 in0.0 mm 0.10 in2.5 mm
05:15 PM 78.5°F25.8°C 57.2°F14.0°C 48% 7.0 mph N11.3 kmh N 15.0 mph24.1 kmh 29.71 in1006.1 mb 0.00 in0.0 mm 0.00 in0.0 mm 0.10 in2.5 mm
05:20 PM 78.6°F25.9°C 57.9°F14.4°C 49% 12.0 mph N19.3 kmh N 16.0 mph25.7 kmh 29.71 in1006.1 mb 0.00 in0.0 mm 0.00 in0.0 mm 0.10 in2.5 mm
05:25 PM 79.2°F26.2°C 56.7°F13.7°C 46% 22.0 mph N35.4 kmh N 22.0 mph35.4 kmh 29.71 in1006.1 mb 0.00 in0.0 mm 0.00 in0.0 mm 0.10 in2.5 mm
05:30 PM 79.7°F26.5°C 53.9°F12.2°C 41% 8.0 mph N12.9 kmh N 18.0 mph29.0 kmh 29.71 in1006.1 mb 0.00 in0.0 mm 0.00 in0.0 mm 0.10 in2.5 mm
05:35 PM 79.4°F26.3°C 55.0°F12.8°C 43% 5.0 mph N8.0 kmh N 18.0 mph29.0 kmh 29.71 in1006.1 mb 0.00 in0.0 mm 0.00 in0.0 mm 0.10 in2.5 mm
05:40 PM 79.2°F26.2°C 54.2°F12.3°C 42% 6.0 mph N9.7 kmh N 20.0 mph32.2 kmh 29.71 in1006.1 mb 0.00 in0.0 mm 0.00 in0.0 mm 0.10 in2.5 mm
05:45 PM 79.1°F26.2°C 54.7°F12.6°C 43% 3.0 mph N4.8 kmh N 6.0 mph9.7 kmh 29.71 in1006.1 mb 0.00 in0.0 mm 0.00 in0.0 mm 0.10 in2.5 mm
05:50 PM 79.1°F26.2°C 54.1°F12.3°C 42% 8.0 mph N12.9 kmh N 15.0 mph24.1 kmh 29.70 in1005.8 mb 0.00 in0.0 mm 0.00 in0.0 mm 0.10 in2.5 mm
05:55 PM 78.8°F26.0°C 54.4°F12.4°C 43% 4.0 mph N6.4 kmh N 15.0 mph24.1 kmh 29.70 in1005.8 mb 0.00 in0.0 mm 0.00 in0.0 mm 0.10 in2.5 mm
06:00 PM 78.4°F25.8°C 53.4°F11.9°C 42% 4.0 mph N6.4 kmh N 7.0 mph11.3 kmh 29.70 in1005.8 mb 0.00 in0.0 mm 0.00 in0.0 mm 0.10 in2.5 mm
06:05 PM 77.9°F25.5°C 53.0°F11.7°C 42% 10.0 mph N16.1 kmh N 14.0 mph22.5 kmh 29.70 in1005.8 mb 0.00 in0.0 mm 0.00 in0.0 mm 0.10 in2.5 mm
06:10 PM 77.7°F25.4°C 52.8°F11.6°C 42% 6.0 mph N9.7 kmh N 14.0 mph22.5 kmh 29.70 in1005.8 mb 0.00 in0.0 mm 0.00 in0.0 mm 0.10 in2.5 mm
06:15 PM 77.7°F25.4°C 53.5°F11.9°C 43% 5.0 mph N8.0 kmh N 7.0 mph11.3 kmh 29.69 in1005.4 mb 0.00 in0.0 mm 0.00 in0.0 mm 0.10 in2.5 mm
06:20 PM 77.9°F25.5°C 54.3°F12.4°C 44% 6.0 mph N9.7 kmh N 12.0 mph19.3 kmh 29.69 in1005.4 mb 0.00 in0.0 mm 0.00 in0.0 mm 0.10 in2.5 mm
06:25 PM 78.2°F25.7°C 54.5°F12.5°C 44% 7.0 mph N11.3 kmh N 12.0 mph19.3 kmh 29.69 in1005.4 mb 0.00 in0.0 mm 0.00 in0.0 mm 0.10 in2.5 mm
06:30 PM 78.3°F25.7°C 54.0°F12.2°C 43% 7.0 mph N11.3 kmh N 8.0 mph12.9 kmh 29.68 in1005.1 mb 0.00 in0.0 mm 0.00 in0.0 mm 0.10 in2.5 mm
06:35 PM 78.3°F25.7°C 54.6°F12.6°C 44% 5.0 mph N8.0 kmh N 9.0 mph14.5 kmh 29.68 in1005.1 mb 0.00 in0.0 mm 0.00 in0.0 mm 0.10 in2.5 mm
06:40 PM 78.1°F25.6°C 54.4°F12.4°C 44% 8.0 mph N12.9 kmh N 11.0 mph17.7 kmh 29.68 in1005.1 mb 0.00 in0.0 mm 0.00 in0.0 mm 0.10 in2.5 mm
06:45 PM 78.0°F25.6°C 55.0°F12.8°C 45% 4.0 mph N6.4 kmh N 4.0 mph6.4 kmh 29.68 in1005.1 mb 0.00 in0.0 mm 0.00 in0.0 mm 0.10 in2.5 mm
06:50 PM 78.1°F25.6°C 55.1°F12.8°C 45% 3.0 mph N4.8 kmh N 11.0 mph17.7 kmh 29.67 in1004.7 mb 0.00 in0.0 mm 0.00 in0.0 mm 0.10 in2.5 mm
06:55 PM 78.2°F25.7°C 55.1°F12.8°C 45% 5.0 mph N8.0 kmh N 11.0 mph17.7 kmh 29.67 in1004.7 mb 0.00 in0.0 mm 0.00 in0.0 mm 0.10 in2.5 mm
07:00 PM 78.1°F25.6°C 55.7°F13.2°C 46% 8.0 mph N12.9 kmh N 8.0 mph12.9 kmh 29.67 in1004.7 mb 0.00 in0.0 mm 0.00 in0.0 mm 0.10 in2.5 mm
07:05 PM 78.0°F25.6°C 55.0°F12.8°C 45% 3.0 mph N4.8 kmh N 8.0 mph12.9 kmh 29.67 in1004.7 mb 0.00 in0.0 mm 0.00 in0.0 mm 0.10 in2.5 mm
07:10 PM 77.9°F25.5°C 55.5°F13.1°C 46% 2.0 mph N3.2 kmh N 9.0 mph14.5 kmh 29.67 in1004.7 mb 0.00 in0.0 mm 0.00 in0.0 mm 0.10 in2.5 mm
07:15 PM 77.7°F25.4°C 55.9°F13.3°C 47% 3.0 mph N4.8 kmh N 7.0 mph11.3 kmh 29.66 in1004.4 mb 0.00 in0.0 mm 0.00 in0.0 mm 0.10 in2.5 mm
07:20 PM 77.5°F25.3°C 56.3°F13.5°C 48% 3.0 mph N4.8 kmh N 8.0 mph12.9 kmh 29.66 in1004.4 mb 0.00 in0.0 mm 0.00 in0.0 mm 0.10 in2.5 mm
07:25 PM 77.2°F25.1°C 57.1°F13.9°C 50% 5.0 mph N8.0 kmh N 9.0 mph14.5 kmh 29.66 in1004.4 mb 0.00 in0.0 mm 0.00 in0.0 mm 0.10 in2.5 mm
07:30 PM 76.7°F24.8°C 57.8°F14.3°C 52% 7.0 mph N11.3 kmh N 9.0 mph14.5 kmh 29.66 in1004.4 mb 0.00 in0.0 mm 0.00 in0.0 mm 0.10 in2.5 mm
07:35 PM 76.1°F24.5°C 57.8°F14.3°C 53% 5.0 mph N8.0 kmh N 10.0 mph16.1 kmh 29.66 in1004.4 mb 0.00 in0.0 mm 0.00 in0.0 mm 0.10 in2.5 mm
07:40 PM 75.5°F24.2°C 57.2°F14.0°C 53% 4.0 mph N6.4 kmh N 10.0 mph16.1 kmh 29.67 in1004.7 mb 0.00 in0.0 mm 0.00 in0.0 mm 0.10 in2.5 mm
07:45 PM 75.2°F24.0°C 57.4°F14.1°C 54% 6.0 mph N9.7 kmh N 6.0 mph9.7 kmh 29.66 in1004.4 mb 0.00 in0.0 mm 0.00 in0.0 mm 0.10 in2.5 mm
07:50 PM 74.8°F23.8°C 57.6°F14.2°C 55% 6.0 mph N9.7 kmh N 8.0 mph12.9 kmh 29.66 in1004.4 mb 0.00 in0.0 mm 0.00 in0.0 mm 0.10 in2.5 mm
07:55 PM 74.4°F23.6°C 58.2°F14.6°C 57% 3.0 mph N4.8 kmh N 9.0 mph14.5 kmh 29.66 in1004.4 mb 0.00 in0.0 mm 0.00 in0.0 mm 0.10 in2.5 mm
08:00 PM 74.1°F23.4°C 57.9°F14.4°C 57% 1.0 mph N1.6 kmh N 1.0 mph1.6 kmh 29.66 in1004.4 mb 0.00 in0.0 mm 0.00 in0.0 mm 0.10 in2.5 mm
08:05 PM 73.8°F23.2°C 58.1°F14.5°C 58% 1.0 mph N1.6 kmh N 6.0 mph9.7 kmh 29.66 in1004.4 mb 0.00 in0.0 mm 0.00 in0.0 mm 0.10 in2.5 mm
08:10 PM 73.5°F23.1°C 58.8°F14.9°C 60% 4.0 mph N6.4 kmh N 6.0 mph9.7 kmh 29.66 in1004.4 mb 0.00 in0.0 mm 0.00 in0.0 mm 0.10 in2.5 mm
08:15 PM 73.1°F22.8°C 58.9°F14.9°C 61% 2.0 mph N3.2 kmh N 4.0 mph6.4 kmh 29.66 in1004.4 mb 0.00 in0.0 mm 0.00 in0.0 mm 0.10 in2.5 mm
08:20 PM 72.7°F22.6°C 58.9°F14.9°C 62% 6.0 mph N9.7 kmh N 7.0 mph11.3 kmh 29.66 in1004.4 mb 0.00 in0.0 mm 0.00 in0.0 mm 0.10 in2.5 mm
08:25 PM 72.2°F22.3°C 58.9°F14.9°C 63% 5.0 mph N8.0 kmh N 7.0 mph11.3 kmh 29.66 in1004.4 mb 0.00 in0.0 mm 0.00 in0.0 mm 0.10 in2.5 mm
08:30 PM 71.7°F22.1°C 58.9°F14.9°C 64% 3.0 mph N4.8 kmh N 5.0 mph8.0 kmh 29.66 in1004.4 mb 0.00 in0.0 mm 0.00 in0.0 mm 0.10 in2.5 mm
08:35 PM 71.2°F21.8°C 58.4°F14.7°C 64% 4.0 mph N6.4 kmh N 6.0 mph9.7 kmh 29.66 in1004.4 mb 0.00 in0.0 mm 0.00 in0.0 mm 0.10 in2.5 mm
08:40 PM 70.8°F21.6°C 58.0°F14.4°C 64% 4.0 mph N6.4 kmh N 6.0 mph9.7 kmh 29.66 in1004.4 mb 0.00 in0.0 mm 0.00 in0.0 mm 0.10 in2.5 mm
08:45 PM 70.3°F21.3°C 58.0°F14.4°C 65% 3.0 mph N4.8 kmh N 4.0 mph6.4 kmh 29.66 in1004.4 mb 0.00 in0.0 mm 0.00 in0.0 mm 0.10 in2.5 mm
08:50 PM 69.8°F21.0°C 57.5°F14.2°C 65% 4.0 mph N6.4 kmh N 7.0 mph11.3 kmh 29.66 in1004.4 mb 0.00 in0.0 mm 0.00 in0.0 mm 0.10 in2.5 mm
08:55 PM 69.5°F20.8°C 57.2°F14.0°C 65% 3.0 mph N4.8 kmh N 7.0 mph11.3 kmh 29.66 in1004.4 mb 0.00 in0.0 mm 0.00 in0.0 mm 0.10 in2.5 mm
09:00 PM 69.1°F20.6°C 57.3°F14.1°C 66% 4.0 mph N6.4 kmh N 5.0 mph8.0 kmh 29.66 in1004.4 mb 0.00 in0.0 mm 0.00 in0.0 mm 0.10 in2.5 mm
09:05 PM 68.7°F20.4°C 57.3°F14.1°C 67% 5.0 mph N8.0 kmh N 6.0 mph9.7 kmh 29.67 in1004.7 mb 0.00 in0.0 mm 0.00 in0.0 mm 0.10 in2.5 mm
09:10 PM 68.3°F20.2°C 56.9°F13.8°C 67% 3.0 mph N4.8 kmh N 7.0 mph11.3 kmh 29.67 in1004.7 mb 0.00 in0.0 mm 0.00 in0.0 mm 0.10 in2.5 mm
09:15 PM 68.0°F20.0°C 57.1°F13.9°C 68% 4.0 mph N6.4 kmh N 4.0 mph6.4 kmh 29.67 in1004.7 mb 0.00 in0.0 mm 0.00 in0.0 mm 0.10 in2.5 mm
09:20 PM 67.8°F19.9°C 56.9°F13.8°C 68% 4.0 mph N6.4 kmh N 8.0 mph12.9 kmh 29.67 in1004.7 mb 0.00 in0.0 mm 0.00 in0.0 mm 0.10 in2.5 mm
09:25 PM 67.7°F19.8°C 56.4°F13.6°C 67% 5.0 mph N8.0 kmh N 8.0 mph12.9 kmh 29.67 in1004.7 mb 0.00 in0.0 mm 0.00 in0.0 mm 0.10 in2.5 mm
09:30 PM 67.9°F19.9°C 56.6°F13.7°C 67% 8.0 mph N12.9 kmh N 11.0 mph17.7 kmh 29.67 in1004.7 mb 0.00 in0.0 mm 0.00 in0.0 mm 0.10 in2.5 mm
09:35 PM 68.2°F20.1°C 56.4°F13.6°C 66% 4.0 mph N6.4 kmh N 11.0 mph17.7 kmh 29.67 in1004.7 mb 0.00 in0.0 mm 0.00 in0.0 mm 0.10 in2.5 mm
09:40 PM 68.5°F20.3°C 56.7°F13.7°C 66% 3.0 mph N4.8 kmh N 11.0 mph17.7 kmh 29.67 in1004.7 mb 0.00 in0.0 mm 0.00 in0.0 mm 0.10 in2.5 mm
09:45 PM 68.5°F20.3°C 56.7°F13.7°C 66% 3.0 mph N4.8 kmh N 3.0 mph4.8 kmh 29.67 in1004.7 mb 0.00 in0.0 mm 0.00 in0.0 mm 0.10 in2.5 mm
09:50 PM 68.3°F20.2°C 56.9°F13.8°C 67% 3.0 mph N4.8 kmh N 6.0 mph9.7 kmh 29.67 in1004.7 mb 0.00 in0.0 mm 0.00 in0.0 mm 0.10 in2.5 mm
09:55 PM 68.2°F20.1°C 56.8°F13.8°C 67% 5.0 mph N8.0 kmh N 7.0 mph11.3 kmh 29.67 in1004.7 mb 0.00 in0.0 mm 0.00 in0.0 mm 0.10 in2.5 mm
10:00 PM 68.1°F20.1°C 57.2°F14.0°C 68% 5.0 mph N8.0 kmh N 6.0 mph9.7 kmh 29.67 in1004.7 mb 0.00 in0.0 mm 0.00 in0.0 mm 0.10 in2.5 mm
10:05 PM 68.2°F20.1°C 57.3°F14.1°C 68% 4.0 mph N6.4 kmh N 7.0 mph11.3 kmh 29.67 in1004.7 mb 0.00 in0.0 mm 0.00 in0.0 mm 0.10 in2.5 mm
10:10 PM 68.1°F20.1°C 57.2°F14.0°C 68% 3.0 mph N4.8 kmh N 8.0 mph12.9 kmh 29.67 in1004.7 mb 0.00 in0.0 mm 0.00 in0.0 mm 0.10 in2.5 mm
10:15 PM 68.1°F20.1°C 57.2°F14.0°C 68% 4.0 mph N6.4 kmh N 8.0 mph12.9 kmh 29.66 in1004.4 mb 0.00 in0.0 mm 0.00 in0.0 mm 0.10 in2.5 mm
10:20 PM 68.2°F20.1°C 57.3°F14.1°C 68% 4.0 mph N6.4 kmh N 8.0 mph12.9 kmh 29.66 in1004.4 mb 0.00 in0.0 mm 0.00 in0.0 mm 0.10 in2.5 mm
10:25 PM 68.2°F20.1°C 57.3°F14.1°C 68% 6.0 mph N9.7 kmh N 11.0 mph17.7 kmh 29.66 in1004.4 mb 0.00 in0.0 mm 0.00 in0.0 mm 0.10 in2.5 mm
10:30 PM 68.3°F20.2°C 57.3°F14.1°C 68% 3.0 mph N4.8 kmh N 8.0 mph12.9 kmh 29.65 in1004.1 mb 0.00 in0.0 mm 0.00 in0.0 mm 0.10 in2.5 mm
10:35 PM 68.2°F20.1°C 57.3°F14.1°C 68% 3.0 mph N4.8 kmh N 9.0 mph14.5 kmh 29.65 in1004.1 mb 0.00 in0.0 mm 0.00 in0.0 mm 0.10 in2.5 mm
10:40 PM 68.2°F20.1°C 57.3°F14.1°C 68% 6.0 mph N9.7 kmh N 11.0 mph17.7 kmh 29.65 in1004.1 mb 0.00 in0.0 mm 0.00 in0.0 mm 0.10 in2.5 mm
10:45 PM 68.2°F20.1°C 57.3°F14.1°C 68% 6.0 mph N9.7 kmh N 6.0 mph9.7 kmh 29.65 in1004.1 mb 0.00 in0.0 mm 0.00 in0.0 mm 0.10 in2.5 mm
10:50 PM 68.3°F20.2°C 57.3°F14.1°C 68% 4.0 mph N6.4 kmh N 10.0 mph16.1 kmh 29.65 in1004.1 mb 0.00 in0.0 mm 0.00 in0.0 mm 0.10 in2.5 mm
10:55 PM 68.4°F20.2°C 57.0°F13.9°C 67% 5.0 mph N8.0 kmh N 10.0 mph16.1 kmh 29.65 in1004.1 mb 0.00 in0.0 mm 0.00 in0.0 mm 0.10 in2.5 mm
11:00 PM 68.5°F20.3°C 57.1°F13.9°C 67% 4.0 mph N6.4 kmh N 5.0 mph8.0 kmh 29.64 in1003.7 mb 0.00 in0.0 mm 0.00 in0.0 mm 0.10 in2.5 mm
11:05 PM 68.4°F20.2°C 57.0°F13.9°C 67% 5.0 mph N8.0 kmh N 7.0 mph11.3 kmh 29.64 in1003.7 mb 0.00 in0.0 mm 0.00 in0.0 mm 0.10 in2.5 mm
11:10 PM 68.2°F20.1°C 57.3°F14.1°C 68% 5.0 mph N8.0 kmh N 9.0 mph14.5 kmh 29.64 in1003.7 mb 0.00 in0.0 mm 0.00 in0.0 mm 0.10 in2.5 mm
11:15 PM 68.1°F20.1°C 56.7°F13.7°C 67% 7.0 mph N11.3 kmh N 8.0 mph12.9 kmh 29.64 in1003.7 mb 0.00 in0.0 mm 0.00 in0.0 mm 0.10 in2.5 mm
11:20 PM 68.3°F20.2°C 56.9°F13.8°C 67% 4.0 mph N6.4 kmh N 10.0 mph16.1 kmh 29.64 in1003.7 mb 0.00 in0.0 mm 0.00 in0.0 mm 0.10 in2.5 mm
11:25 PM 68.4°F20.2°C 56.6°F13.7°C 66% 4.0 mph N6.4 kmh N 10.0 mph16.1 kmh 29.64 in1003.7 mb 0.00 in0.0 mm 0.00 in0.0 mm 0.10 in2.5 mm
11:30 PM 68.4°F20.2°C 56.6°F13.7°C 66% 7.0 mph N11.3 kmh N 8.0 mph12.9 kmh 29.64 in1003.7 mb 0.00 in0.0 mm 0.00 in0.0 mm 0.10 in2.5 mm
11:35 PM 68.3°F20.2°C 56.5°F13.6°C 66% 4.0 mph N6.4 kmh N 8.0 mph12.9 kmh 29.64 in1003.7 mb 0.00 in0.0 mm 0.00 in0.0 mm 0.10 in2.5 mm
11:40 PM 68.2°F20.1°C 56.8°F13.8°C 67% 4.0 mph N6.4 kmh N 9.0 mph14.5 kmh 29.63 in1003.4 mb 0.00 in0.0 mm 0.00 in0.0 mm 0.10 in2.5 mm
11:45 PM 68.1°F20.1°C 56.7°F13.7°C 67% 7.0 mph N11.3 kmh N 7.0 mph11.3 kmh 29.64 in1003.7 mb 0.00 in0.0 mm 0.00 in0.0 mm 0.10 in2.5 mm
11:50 PM 68.1°F20.1°C 56.7°F13.7°C 67% 5.0 mph N8.0 kmh N 12.0 mph19.3 kmh 29.63 in1003.4 mb 0.00 in0.0 mm 0.00 in0.0 mm 0.10 in2.5 mm
11:55 PM 68.1°F20.1°C 56.7°F13.7°C 67% 5.0 mph N8.0 kmh N 12.0 mph19.3 kmh 29.63 in1003.4 mb 0.00 in0.0 mm 0.00 in0.0 mm 0.10 in2.5 mm